Terminal Aerodrome Forecast
Issued by NWS

Home | Current Version | Previous Version | Text Only | Print | Product List | Glossary On
Versions: 1 2 3 4 5 6 7 8 9 10 11 12
000
FTUS45 KABQ 261739
TAFAEG
TAF
KAEG 261739Z 2618/2718 25011KT P6SM VCSH BKN080
      TEMPO 2622/2701 VRB15G25KT P6SM -TSRA OVC080CB
     FM270100 31010KT P6SM VCSH BKN090
     FM270400 33006KT P6SM BKN090
     FM271300 01005KT P6SM SCT100=

USA.gov is the U.S. government's official web portal to all federal, state and local government web resources and services.